sensor_id;sensor_type;location;lat;lon;timestamp;temperature;humidity
19829;DHT22;10075;50.924;4.396;2023-02-26T00:01:27;2.70;99.90
19829;DHT22;10075;50.924;4.396;2023-02-26T00:03:56;2.70;99.90
19829;DHT22;10075;50.924;4.396;2023-02-26T00:06:24;2.70;99.90
19829;DHT22;10075;50.924;4.396;2023-02-26T00:08:51;2.70;99.90
19829;DHT22;10075;50.924;4.396;2023-02-26T00:11:18;2.70;99.90
19829;DHT22;10075;50.924;4.396;2023-02-26T00:13:46;2.60;99.90
19829;DHT22;10075;50.924;4.396;2023-02-26T00:16:22;2.50;99.90
19829;DHT22;10075;50.924;4.396;2023-02-26T00:18:51;2.50;99.90
19829;DHT22;10075;50.924;4.396;2023-02-26T00:21:20;2.80;99.90
19829;DHT22;10075;50.924;4.396;2023-02-26T00:23:48;2.70;99.90
19829;DHT22;10075;50.924;4.396;2023-02-26T00:26:15;2.70;99.90
19829;DHT22;10075;50.924;4.396;2023-02-26T00:28:42;2.70;99.90
19829;DHT22;10075;50.924;4.396;2023-02-26T00:31:10;2.70;99.90
19829;DHT22;10075;50.924;4.396;2023-02-26T00:33:38;2.60;99.90
19829;DHT22;10075;50.924;4.396;2023-02-26T00:36:18;2.40;99.90
19829;DHT22;10075;50.924;4.396;2023-02-26T00:38:53;2.40;99.90
19829;DHT22;10075;50.924;4.396;2023-02-26T00:41:22;2.30;99.90
19829;DHT22;10075;50.924;4.396;2023-02-26T00:43:49;2.30;99.90
19829;DHT22;10075;50.924;4.396;2023-02-26T00:46:23;2.20;99.90
19829;DHT22;10075;50.924;4.396;2023-02-26T00:48:58;2.10;99.90
19829;DHT22;10075;50.924;4.396;2023-02-26T00:51:34;2.00;99.90
19829;DHT22;10075;50.924;4.396;2023-02-26T00:54:08;1.80;99.90
19829;DHT22;10075;50.924;4.396;2023-02-26T00:56:36;1.90;99.90
19829;DHT22;10075;50.924;4.396;2023-02-26T00:59:03;2.00;99.90
19829;DHT22;10075;50.924;4.396;2023-02-26T01:01:30;2.00;99.90
19829;DHT22;10075;50.924;4.396;2023-02-26T01:03:57;1.90;99.90
19829;DHT22;10075;50.924;4.396;2023-02-26T01:06:27;1.70;99.90
19829;DHT22;10075;50.924;4.396;2023-02-26T01:09:02;1.70;99.90
19829;DHT22;10075;50.924;4.396;2023-02-26T01:11:31;1.80;99.90
19829;DHT22;10075;50.924;4.396;2023-02-26T01:14:00;1.90;99.90
19829;DHT22;10075;50.924;4.396;2023-02-26T01:16:29;1.90;99.90
19829;DHT22;10075;50.924;4.396;2023-02-26T01:19:03;1.90;99.90
19829;DHT22;10075;50.924;4.396;2023-02-26T01:21:35;1.60;99.90
19829;DHT22;10075;50.924;4.396;2023-02-26T01:24:08;1.60;99.90
19829;DHT22;10075;50.924;4.396;2023-02-26T01:26:38;1.50;99.90
19829;DHT22;10075;50.924;4.396;2023-02-26T01:29:05;1.40;99.90
19829;DHT22;10075;50.924;4.396;2023-02-26T01:31:37;1.50;99.90
19829;DHT22;10075;50.924;4.396;2023-02-26T01:34:09;1.40;99.90
19829;DHT22;10075;50.924;4.396;2023-02-26T01:36:43;1.30;99.90
19829;DHT22;10075;50.924;4.396;2023-02-26T01:39:19;1.20;99.90
19829;DHT22;10075;50.924;4.396;2023-02-26T01:41:51;1.30;99.90
19829;DHT22;10075;50.924;4.396;2023-02-26T01:44:26;1.20;99.90
19829;DHT22;10075;50.924;4.396;2023-02-26T01:47:09;1.20;99.90
19829;DHT22;10075;50.924;4.396;2023-02-26T01:49:37;1.10;99.90
19829;DHT22;10075;50.924;4.396;2023-02-26T01:52:06;1.10;99.90
19829;DHT22;10075;50.924;4.396;2023-02-26T01:54:36;1.10;99.90
19829;DHT22;10075;50.924;4.396;2023-02-26T01:57:06;1.10;99.90
19829;DHT22;10075;50.924;4.396;2023-02-26T01:59:37;1.40;99.90
19829;DHT22;10075;50.924;4.396;2023-02-26T02:02:07;1.40;99.90
19829;DHT22;10075;50.924;4.396;2023-02-26T02:04:34;1.30;99.90
19829;DHT22;10075;50.924;4.396;2023-02-26T02:07:03;1.40;99.90
19829;DHT22;10075;50.924;4.396;2023-02-26T02:09:30;1.60;99.90
19829;DHT22;10075;50.924;4.396;2023-02-26T02:12:19;1.50;99.90
19829;DHT22;10075;50.924;4.396;2023-02-26T02:14:56;1.60;99.90
19829;DHT22;10075;50.924;4.396;2023-02-26T02:17:36;1.80;99.90
19829;DHT22;10075;50.924;4.396;2023-02-26T02:20:36;1.80;99.90
19829;DHT22;10075;50.924;4.396;2023-02-26T02:23:12;1.90;99.90
19829;DHT22;10075;50.924;4.396;2023-02-26T02:26:18;1.70;99.90
19829;DHT22;10075;50.924;4.396;2023-02-26T02:29:05;1.70;99.90
19829;DHT22;10075;50.924;4.396;2023-02-26T02:31:39;1.60;99.90
19829;DHT22;10075;50.924;4.396;2023-02-26T02:34:12;1.60;99.90
19829;DHT22;10075;50.924;4.396;2023-02-26T02:36:46;1.50;99.90
19829;DHT22;10075;50.924;4.396;2023-02-26T02:39:17;1.70;99.90
19829;DHT22;10075;50.924;4.396;2023-02-26T02:41:49;1.70;99.90
19829;DHT22;10075;50.924;4.396;2023-02-26T02:44:18;1.70;99.90
19829;DHT22;10075;50.924;4.396;2023-02-26T02:46:51;1.70;99.90
19829;DHT22;10075;50.924;4.396;2023-02-26T02:49:22;1.80;99.90
19829;DHT22;10075;50.924;4.396;2023-02-26T02:51:54;1.80;99.90
19829;DHT22;10075;50.924;4.396;2023-02-26T02:54:25;2.00;99.90
19829;DHT22;10075;50.924;4.396;2023-02-26T02:56:55;2.10;99.90
19829;DHT22;10075;50.924;4.396;2023-02-26T02:59:28;2.20;99.90
19829;DHT22;10075;50.924;4.396;2023-02-26T03:02:03;2.20;99.90
19829;DHT22;10075;50.924;4.396;2023-02-26T03:04:33;2.40;99.90
19829;DHT22;10075;50.924;4.396;2023-02-26T03:07:00;2.20;99.90
19829;DHT22;10075;50.924;4.396;2023-02-26T03:09:27;2.00;99.90
19829;DHT22;10075;50.924;4.396;2023-02-26T03:11:54;2.00;99.90
19829;DHT22;10075;50.924;4.396;2023-02-26T03:14:22;2.00;99.90
19829;DHT22;10075;50.924;4.396;2023-02-26T03:17:01;2.20;99.90
19829;DHT22;10075;50.924;4.396;2023-02-26T03:19:37;2.30;99.90
19829;DHT22;10075;50.924;4.396;2023-02-26T03:22:10;2.40;99.90
19829;DHT22;10075;50.924;4.396;2023-02-26T03:24:45;2.40;99.90
19829;DHT22;10075;50.924;4.396;2023-02-26T03:27:19;2.40;99.90
19829;DHT22;10075;50.924;4.396;2023-02-26T03:29:51;2.50;99.90
19829;DHT22;10075;50.924;4.396;2023-02-26T03:32:25;2.60;99.90
19829;DHT22;10075;50.924;4.396;2023-02-26T03:34:59;2.60;99.90
19829;DHT22;10075;50.924;4.396;2023-02-26T03:37:31;2.60;99.90
19829;DHT22;10075;50.924;4.396;2023-02-26T03:40:03;2.60;99.90
19829;DHT22;10075;50.924;4.396;2023-02-26T03:42:35;2.60;99.90
19829;DHT22;10075;50.924;4.396;2023-02-26T03:45:06;2.40;99.90
19829;DHT22;10075;50.924;4.396;2023-02-26T03:47:37;2.30;99.90
19829;DHT22;10075;50.924;4.396;2023-02-26T03:50:08;2.20;99.90
19829;DHT22;10075;50.924;4.396;2023-02-26T03:52:39;2.20;99.90
19829;DHT22;10075;50.924;4.396;2023-02-26T03:55:09;2.30;99.90
19829;DHT22;10075;50.924;4.396;2023-02-26T03:57:39;2.30;99.90
19829;DHT22;10075;50.924;4.396;2023-02-26T04:00:08;2.30;99.90
19829;DHT22;10075;50.924;4.396;2023-02-26T04:02:42;2.40;99.90
19829;DHT22;10075;50.924;4.396;2023-02-26T04:05:13;2.30;99.90
19829;DHT22;10075;50.924;4.396;2023-02-26T04:07:41;2.20;99.90
19829;DHT22;10075;50.924;4.396;2023-02-26T04:10:12;2.20;99.90
19829;DHT22;10075;50.924;4.396;2023-02-26T04:12:40;2.00;99.90
19829;DHT22;10075;50.924;4.396;2023-02-26T04:15:08;2.10;99.90
19829;DHT22;10075;50.924;4.396;2023-02-26T04:17:36;2.00;99.90
19829;DHT22;10075;50.924;4.396;2023-02-26T04:20:04;1.80;99.90
19829;DHT22;10075;50.924;4.396;2023-02-26T04:22:34;1.90;99.90
19829;DHT22;10075;50.924;4.396;2023-02-26T04:25:01;1.80;99.90
19829;DHT22;10075;50.924;4.396;2023-02-26T04:27:28;1.80;99.90
19829;DHT22;10075;50.924;4.396;2023-02-26T04:29:55;1.80;99.90
19829;DHT22;10075;50.924;4.396;2023-02-26T04:32:22;1.70;99.90
19829;DHT22;10075;50.924;4.396;2023-02-26T04:34:51;1.90;99.90
19829;DHT22;10075;50.924;4.396;2023-02-26T04:37:18;2.00;99.90
19829;DHT22;10075;50.924;4.396;2023-02-26T04:39:45;2.10;99.90
19829;DHT22;10075;50.924;4.396;2023-02-26T04:42:11;2.10;99.90
19829;DHT22;10075;50.924;4.396;2023-02-26T04:44:38;2.10;99.90
19829;DHT22;10075;50.924;4.396;2023-02-26T04:47:05;2.20;99.90
19829;DHT22;10075;50.924;4.396;2023-02-26T04:49:32;2.10;99.90
19829;DHT22;10075;50.924;4.396;2023-02-26T04:52:02;2.00;99.90
19829;DHT22;10075;50.924;4.396;2023-02-26T04:54:29;1.90;99.90
19829;DHT22;10075;50.924;4.396;2023-02-26T04:56:56;1.80;99.90
19829;DHT22;10075;50.924;4.396;2023-02-26T04:59:23;1.70;99.90
19829;DHT22;10075;50.924;4.396;2023-02-26T05:01:50;1.70;99.90
19829;DHT22;10075;50.924;4.396;2023-02-26T05:04:17;1.60;99.90
19829;DHT22;10075;50.924;4.396;2023-02-26T05:06:44;1.40;99.90
19829;DHT22;10075;50.924;4.396;2023-02-26T05:09:12;1.40;99.90
19829;DHT22;10075;50.924;4.396;2023-02-26T05:11:39;1.50;99.90
19829;DHT22;10075;50.924;4.396;2023-02-26T05:14:06;1.30;99.90
19829;DHT22;10075;50.924;4.396;2023-02-26T05:16:33;1.20;99.90
19829;DHT22;10075;50.924;4.396;2023-02-26T05:19:01;1.20;99.90
19829;DHT22;10075;50.924;4.396;2023-02-26T05:21:28;1.30;99.90
19829;DHT22;10075;50.924;4.396;2023-02-26T05:23:55;1.40;99.90
19829;DHT22;10075;50.924;4.396;2023-02-26T05:26:23;1.30;99.90
19829;DHT22;10075;50.924;4.396;2023-02-26T05:28:50;1.30;99.90
19829;DHT22;10075;50.924;4.396;2023-02-26T05:31:17;1.30;99.90
19829;DHT22;10075;50.924;4.396;2023-02-26T05:33:44;1.30;99.90
19829;DHT22;10075;50.924;4.396;2023-02-26T05:36:11;1.30;99.90
19829;DHT22;10075;50.924;4.396;2023-02-26T05:38:38;1.20;99.90
19829;DHT22;10075;50.924;4.396;2023-02-26T05:41:05;1.30;99.90
19829;DHT22;10075;50.924;4.396;2023-02-26T05:43:34;1.20;99.90
19829;DHT22;10075;50.924;4.396;2023-02-26T05:46:01;1.20;99.90
19829;DHT22;10075;50.924;4.396;2023-02-26T05:48:28;1.40;99.90
19829;DHT22;10075;50.924;4.396;2023-02-26T05:50:55;1.30;99.90
19829;DHT22;10075;50.924;4.396;2023-02-26T05:53:22;1.20;99.90
19829;DHT22;10075;50.924;4.396;2023-02-26T05:55:49;1.10;99.90
19829;DHT22;10075;50.924;4.396;2023-02-26T05:58:16;1.10;99.90
19829;DHT22;10075;50.924;4.396;2023-02-26T06:00:45;1.20;99.90
19829;DHT22;10075;50.924;4.396;2023-02-26T06:03:11;1.00;99.90
19829;DHT22;10075;50.924;4.396;2023-02-26T06:05:38;1.10;99.90
19829;DHT22;10075;50.924;4.396;2023-02-26T06:08:06;1.10;99.90
19829;DHT22;10075;50.924;4.396;2023-02-26T06:10:33;1.10;99.90
19829;DHT22;10075;50.924;4.396;2023-02-26T06:13:00;1.20;99.90
19829;DHT22;10075;50.924;4.396;2023-02-26T06:15:27;1.20;99.90
19829;DHT22;10075;50.924;4.396;2023-02-26T06:17:55;1.10;99.90
19829;DHT22;10075;50.924;4.396;2023-02-26T06:20:22;1.00;99.90
19829;DHT22;10075;50.924;4.396;2023-02-26T06:22:49;1.00;99.90
19829;DHT22;10075;50.924;4.396;2023-02-26T06:25:16;1.00;99.90
19829;DHT22;10075;50.924;4.396;2023-02-26T06:27:43;1.00;99.90
19829;DHT22;10075;50.924;4.396;2023-02-26T06:30:11;1.00;99.90
19829;DHT22;10075;50.924;4.396;2023-02-26T06:32:38;1.00;99.90
19829;DHT22;10075;50.924;4.396;2023-02-26T06:35:07;1.10;99.90
19829;DHT22;10075;50.924;4.396;2023-02-26T06:37:34;1.20;99.90
19829;DHT22;10075;50.924;4.396;2023-02-26T06:40:02;1.00;99.90
19829;DHT22;10075;50.924;4.396;2023-02-26T06:42:30;0.90;99.90
19829;DHT22;10075;50.924;4.396;2023-02-26T06:44:57;1.00;99.90
19829;DHT22;10075;50.924;4.396;2023-02-26T06:47:24;0.90;99.90
19829;DHT22;10075;50.924;4.396;2023-02-26T06:49:51;0.90;99.90
19829;DHT22;10075;50.924;4.396;2023-02-26T06:52:19;1.00;99.90
19829;DHT22;10075;50.924;4.396;2023-02-26T06:54:46;1.10;99.90
19829;DHT22;10075;50.924;4.396;2023-02-26T06:57:13;1.20;99.90
19829;DHT22;10075;50.924;4.396;2023-02-26T06:59:40;1.20;99.90
19829;DHT22;10075;50.924;4.396;2023-02-26T07:02:12;1.00;99.90
19829;DHT22;10075;50.924;4.396;2023-02-26T07:04:41;1.10;99.90
19829;DHT22;10075;50.924;4.396;2023-02-26T07:07:08;1.10;99.90
19829;DHT22;10075;50.924;4.396;2023-02-26T07:09:36;1.10;99.90
19829;DHT22;10075;50.924;4.396;2023-02-26T07:12:03;1.00;99.90
19829;DHT22;10075;50.924;4.396;2023-02-26T07:14:31;1.00;99.90
19829;DHT22;10075;50.924;4.396;2023-02-26T07:16:59;1.00;99.90
19829;DHT22;10075;50.924;4.396;2023-02-26T07:19:26;1.20;99.90
19829;DHT22;10075;50.924;4.396;2023-02-26T07:21:53;1.30;99.90
19829;DHT22;10075;50.924;4.396;2023-02-26T07:24:20;1.40;99.90
19829;DHT22;10075;50.924;4.396;2023-02-26T07:26:48;1.50;99.90
19829;DHT22;10075;50.924;4.396;2023-02-26T07:29:16;1.50;99.90
19829;DHT22;10075;50.924;4.396;2023-02-26T07:31:43;1.70;99.90
19829;DHT22;10075;50.924;4.396;2023-02-26T07:34:10;1.80;99.90
19829;DHT22;10075;50.924;4.396;2023-02-26T07:36:36;1.80;99.90
19829;DHT22;10075;50.924;4.396;2023-02-26T07:39:03;1.80;99.90
19829;DHT22;10075;50.924;4.396;2023-02-26T07:41:30;1.80;99.90
19829;DHT22;10075;50.924;4.396;2023-02-26T07:43:59;1.80;99.90
19829;DHT22;10075;50.924;4.396;2023-02-26T07:46:26;1.80;99.90
19829;DHT22;10075;50.924;4.396;2023-02-26T07:48:53;1.70;99.90
19829;DHT22;10075;50.924;4.396;2023-02-26T07:51:20;1.90;99.90
19829;DHT22;10075;50.924;4.396;2023-02-26T07:53:47;1.90;99.90
19829;DHT22;10075;50.924;4.396;2023-02-26T07:56:14;1.90;99.90
19829;DHT22;10075;50.924;4.396;2023-02-26T07:58:41;1.90;99.90
19829;DHT22;10075;50.924;4.396;2023-02-26T08:01:09;1.70;99.90
19829;DHT22;10075;50.924;4.396;2023-02-26T08:03:36;1.80;99.90
19829;DHT22;10075;50.924;4.396;2023-02-26T08:06:04;2.00;99.90
19829;DHT22;10075;50.924;4.396;2023-02-26T08:08:32;2.00;99.90
19829;DHT22;10075;50.924;4.396;2023-02-26T08:10:59;2.00;99.90
19829;DHT22;10075;50.924;4.396;2023-02-26T08:13:26;2.20;99.90
19829;DHT22;10075;50.924;4.396;2023-02-26T08:15:53;2.30;99.90
19829;DHT22;10075;50.924;4.396;2023-02-26T08:18:22;2.30;99.90
19829;DHT22;10075;50.924;4.396;2023-02-26T08:20:50;2.50;99.90
19829;DHT22;10075;50.924;4.396;2023-02-26T08:23:17;2.40;99.90
19829;DHT22;10075;50.924;4.396;2023-02-26T08:25:44;2.70;99.90
19829;DHT22;10075;50.924;4.396;2023-02-26T08:28:12;2.90;99.90
19829;DHT22;10075;50.924;4.396;2023-02-26T08:30:39;2.90;99.90
19829;DHT22;10075;50.924;4.396;2023-02-26T08:33:06;3.00;99.90
19829;DHT22;10075;50.924;4.396;2023-02-26T08:35:34;2.90;99.90
19829;DHT22;10075;50.924;4.396;2023-02-26T08:38:01;3.00;99.90
19829;DHT22;10075;50.924;4.396;2023-02-26T08:40:28;3.10;99.90
19829;DHT22;10075;50.924;4.396;2023-02-26T08:42:55;3.20;99.90
19829;DHT22;10075;50.924;4.396;2023-02-26T08:45:22;3.20;99.90
19829;DHT22;10075;50.924;4.396;2023-02-26T08:47:49;3.30;99.90
19829;DHT22;10075;50.924;4.396;2023-02-26T08:50:17;3.30;99.90
19829;DHT22;10075;50.924;4.396;2023-02-26T08:52:46;3.20;99.90
19829;DHT22;10075;50.924;4.396;2023-02-26T08:55:13;3.00;99.90
19829;DHT22;10075;50.924;4.396;2023-02-26T08:57:40;3.00;99.90
19829;DHT22;10075;50.924;4.396;2023-02-26T09:00:08;3.10;99.90
19829;DHT22;10075;50.924;4.396;2023-02-26T09:02:36;3.40;99.90
19829;DHT22;10075;50.924;4.396;2023-02-26T09:05:04;3.40;99.90
19829;DHT22;10075;50.924;4.396;2023-02-26T09:07:31;3.50;99.90
19829;DHT22;10075;50.924;4.396;2023-02-26T09:09:59;3.60;99.90
19829;DHT22;10075;50.924;4.396;2023-02-26T09:12:26;3.50;99.90
19829;DHT22;10075;50.924;4.396;2023-02-26T09:14:53;3.60;99.90
19829;DHT22;10075;50.924;4.396;2023-02-26T09:17:23;3.70;99.90
19829;DHT22;10075;50.924;4.396;2023-02-26T09:19:50;3.50;99.90
19829;DHT22;10075;50.924;4.396;2023-02-26T09:22:17;3.40;99.90
19829;DHT22;10075;50.924;4.396;2023-02-26T09:24:44;3.40;99.90
19829;DHT22;10075;50.924;4.396;2023-02-26T09:27:13;3.50;99.90
19829;DHT22;10075;50.924;4.396;2023-02-26T09:29:39;3.60;99.90
19829;DHT22;10075;50.924;4.396;2023-02-26T09:32:07;3.80;99.90
19829;DHT22;10075;50.924;4.396;2023-02-26T09:34:34;3.90;99.90
19829;DHT22;10075;50.924;4.396;2023-02-26T09:37:02;4.10;99.90
19829;DHT22;10075;50.924;4.396;2023-02-26T09:39:29;4.00;99.90
19829;DHT22;10075;50.924;4.396;2023-02-26T09:41:58;4.00;99.90
19829;DHT22;10075;50.924;4.396;2023-02-26T09:44:29;4.10;99.90
19829;DHT22;10075;50.924;4.396;2023-02-26T09:47:01;4.20;99.90
19829;DHT22;10075;50.924;4.396;2023-02-26T09:49:38;4.20;99.90
19829;DHT22;10075;50.924;4.396;2023-02-26T09:52:15;4.00;99.90
19829;DHT22;10075;50.924;4.396;2023-02-26T09:54:50;3.90;99.90
19829;DHT22;10075;50.924;4.396;2023-02-26T09:57:26;3.90;99.90
19829;DHT22;10075;50.924;4.396;2023-02-26T09:59:56;4.20;99.90
19829;DHT22;10075;50.924;4.396;2023-02-26T10:02:32;4.30;99.90
19829;DHT22;10075;50.924;4.396;2023-02-26T10:05:12;4.30;99.90
19829;DHT22;10075;50.924;4.396;2023-02-26T10:07:45;4.40;99.90
19829;DHT22;10075;50.924;4.396;2023-02-26T10:10:21;4.50;99.90
19829;DHT22;10075;50.924;4.396;2023-02-26T10:12:52;4.50;99.90
19829;DHT22;10075;50.924;4.396;2023-02-26T10:15:23;4.40;99.90
19829;DHT22;10075;50.924;4.396;2023-02-26T10:18:01;4.50;99.90
19829;DHT22;10075;50.924;4.396;2023-02-26T10:20:32;4.50;99.90
19829;DHT22;10075;50.924;4.396;2023-02-26T10:23:03;4.60;99.90
19829;DHT22;10075;50.924;4.396;2023-02-26T10:25:35;4.60;99.90
19829;DHT22;10075;50.924;4.396;2023-02-26T10:28:18;4.50;99.90
19829;DHT22;10075;50.924;4.396;2023-02-26T10:30:56;4.60;99.90
19829;DHT22;10075;50.924;4.396;2023-02-26T10:33:32;4.60;99.90
19829;DHT22;10075;50.924;4.396;2023-02-26T10:36:07;4.80;99.90
19829;DHT22;10075;50.924;4.396;2023-02-26T10:38:35;5.00;99.90
19829;DHT22;10075;50.924;4.396;2023-02-26T10:41:05;5.00;99.90
19829;DHT22;10075;50.924;4.396;2023-02-26T10:43:39;5.00;99.90
19829;DHT22;10075;50.924;4.396;2023-02-26T10:46:21;5.00;99.90
19829;DHT22;10075;50.924;4.396;2023-02-26T10:48:57;5.10;99.90
19829;DHT22;10075;50.924;4.396;2023-02-26T10:51:33;5.10;99.90
19829;DHT22;10075;50.924;4.396;2023-02-26T10:54:09;5.00;99.90
19829;DHT22;10075;50.924;4.396;2023-02-26T10:56:38;5.20;99.90
19829;DHT22;10075;50.924;4.396;2023-02-26T10:59:05;5.50;99.90
19829;DHT22;10075;50.924;4.396;2023-02-26T11:01:35;5.70;99.90
19829;DHT22;10075;50.924;4.396;2023-02-26T11:04:05;5.50;99.90
19829;DHT22;10075;50.924;4.396;2023-02-26T11:06:37;5.30;99.90
19829;DHT22;10075;50.924;4.396;2023-02-26T11:09:06;5.20;99.90
19829;DHT22;10075;50.924;4.396;2023-02-26T11:11:42;5.40;99.90
19829;DHT22;10075;50.924;4.396;2023-02-26T11:14:11;5.50;99.90
19829;DHT22;10075;50.924;4.396;2023-02-26T11:16:46;5.80;99.90
19829;DHT22;10075;50.924;4.396;2023-02-26T11:19:15;6.10;99.90
19829;DHT22;10075;50.924;4.396;2023-02-26T11:21:45;6.10;99.90
19829;DHT22;10075;50.924;4.396;2023-02-26T11:24:17;5.80;99.90
19829;DHT22;10075;50.924;4.396;2023-02-26T11:26:47;5.70;99.90
19829;DHT22;10075;50.924;4.396;2023-02-26T11:29:18;5.80;99.90
19829;DHT22;10075;50.924;4.396;2023-02-26T11:31:50;5.70;99.90
19829;DHT22;10075;50.924;4.396;2023-02-26T11:34:21;5.90;99.90
19829;DHT22;10075;50.924;4.396;2023-02-26T11:36:50;6.20;99.90
19829;DHT22;10075;50.924;4.396;2023-02-26T11:39:20;6.40;99.90
19829;DHT22;10075;50.924;4.396;2023-02-26T11:41:49;6.30;99.90
19829;DHT22;10075;50.924;4.396;2023-02-26T11:44:21;6.20;99.90
19829;DHT22;10075;50.924;4.396;2023-02-26T11:46:54;5.90;99.90
19829;DHT22;10075;50.924;4.396;2023-02-26T11:49:25;6.00;99.90
19829;DHT22;10075;50.924;4.396;2023-02-26T11:52:04;6.00;99.90
19829;DHT22;10075;50.924;4.396;2023-02-26T11:54:34;5.90;99.90
19829;DHT22;10075;50.924;4.396;2023-02-26T11:57:15;5.90;99.90
19829;DHT22;10075;50.924;4.396;2023-02-26T11:59:46;5.60;99.90
19829;DHT22;10075;50.924;4.396;2023-02-26T12:02:18;5.50;99.90
19829;DHT22;10075;50.924;4.396;2023-02-26T12:04:49;5.50;99.90
19829;DHT22;10075;50.924;4.396;2023-02-26T12:07:18;5.50;99.90
19829;DHT22;10075;50.924;4.396;2023-02-26T12:09:45;5.90;99.90
19829;DHT22;10075;50.924;4.396;2023-02-26T12:12:26;6.00;99.90
19829;DHT22;10075;50.924;4.396;2023-02-26T12:15:13;6.10;99.90
19829;DHT22;10075;50.924;4.396;2023-02-26T12:18:05;6.20;99.90
19829;DHT22;10075;50.924;4.396;2023-02-26T12:20:42;6.20;99.70
19829;DHT22;10075;50.924;4.396;2023-02-26T12:23:29;6.20;99.90
19829;DHT22;10075;50.924;4.396;2023-02-26T12:28:52;6.20;98.60
19829;DHT22;10075;50.924;4.396;2023-02-26T12:31:44;6.20;98.60
19829;DHT22;10075;50.924;4.396;2023-02-26T12:34:28;6.40;97.90
19829;DHT22;10075;50.924;4.396;2023-02-26T12:37:08;6.60;97.20
19829;DHT22;10075;50.924;4.396;2023-02-26T12:39:50;6.60;96.60
19829;DHT22;10075;50.924;4.396;2023-02-26T12:42:32;6.70;97.20
19829;DHT22;10075;50.924;4.396;2023-02-26T12:45:19;7.00;97.70
19829;DHT22;10075;50.924;4.396;2023-02-26T12:48:01;7.50;97.30
19829;DHT22;10075;50.924;4.396;2023-02-26T12:50:42;7.40;96.40
19829;DHT22;10075;50.924;4.396;2023-02-26T12:53:38;7.40;96.90
19829;DHT22;10075;50.924;4.396;2023-02-26T12:56:26;7.40;96.80
19829;DHT22;10075;50.924;4.396;2023-02-26T12:59:07;7.50;96.40
19829;DHT22;10075;50.924;4.396;2023-02-26T13:01:45;7.30;95.90
19829;DHT22;10075;50.924;4.396;2023-02-26T13:04:53;6.80;96.50
19829;DHT22;10075;50.924;4.396;2023-02-26T13:08:01;6.60;96.60
19829;DHT22;10075;50.924;4.396;2023-02-26T13:10:40;6.50;96.20
19829;DHT22;10075;50.924;4.396;2023-02-26T13:13:24;6.70;96.40
19829;DHT22;10075;50.924;4.396;2023-02-26T13:16:04;6.90;96.20
19829;DHT22;10075;50.924;4.396;2023-02-26T13:18:41;6.60;95.20
19829;DHT22;10075;50.924;4.396;2023-02-26T13:21:12;6.30;95.80
19829;DHT22;10075;50.924;4.396;2023-02-26T13:23:48;6.10;95.10
19829;DHT22;10075;50.924;4.396;2023-02-26T13:26:17;5.90;95.30
19829;DHT22;10075;50.924;4.396;2023-02-26T13:28:51;5.90;95.50
19829;DHT22;10075;50.924;4.396;2023-02-26T13:31:22;5.70;95.80
19829;DHT22;10075;50.924;4.396;2023-02-26T13:33:51;5.90;96.10
19829;DHT22;10075;50.924;4.396;2023-02-26T13:36:21;6.20;95.40
19829;DHT22;10075;50.924;4.396;2023-02-26T13:39:00;6.40;95.80
19829;DHT22;10075;50.924;4.396;2023-02-26T13:41:34;6.60;95.30
19829;DHT22;10075;50.924;4.396;2023-02-26T13:44:16;6.70;95.00
19829;DHT22;10075;50.924;4.396;2023-02-26T13:49:50;6.90;94.50
19829;DHT22;10075;50.924;4.396;2023-02-26T13:52:24;6.90;94.30
19829;DHT22;10075;50.924;4.396;2023-02-26T13:54:53;6.70;94.10
19829;DHT22;10075;50.924;4.396;2023-02-26T13:57:33;6.60;94.60
19829;DHT22;10075;50.924;4.396;2023-02-26T14:00:17;6.80;93.90
19829;DHT22;10075;50.924;4.396;2023-02-26T14:02:53;6.70;93.30
19829;DHT22;10075;50.924;4.396;2023-02-26T14:11:36;6.60;94.30
19829;DHT22;10075;50.924;4.396;2023-02-26T14:19:39;6.00;94.60
19829;DHT22;10075;50.924;4.396;2023-02-26T14:22:17;6.10;95.30
19829;DHT22;10075;50.924;4.396;2023-02-26T14:24:52;6.40;95.50
19829;DHT22;10075;50.924;4.396;2023-02-26T14:27:35;6.50;94.90
19829;DHT22;10075;50.924;4.396;2023-02-26T14:30:15;6.30;94.10
19829;DHT22;10075;50.924;4.396;2023-02-26T14:32:48;6.00;94.10
19829;DHT22;10075;50.924;4.396;2023-02-26T14:35:19;6.00;94.40
19829;DHT22;10075;50.924;4.396;2023-02-26T14:37:54;6.10;94.30
19829;DHT22;10075;50.924;4.396;2023-02-26T14:40:22;5.90;94.50
19829;DHT22;10075;50.924;4.396;2023-02-26T14:42:54;6.00;95.20
19829;DHT22;10075;50.924;4.396;2023-02-26T14:45:28;6.30;95.00
19829;DHT22;10075;50.924;4.396;2023-02-26T14:47:57;6.40;94.60
19829;DHT22;10075;50.924;4.396;2023-02-26T14:50:28;6.50;94.80
19829;DHT22;10075;50.924;4.396;2023-02-26T14:53:14;6.30;95.00
19829;DHT22;10075;50.924;4.396;2023-02-26T14:55:53;6.20;95.00
19829;DHT22;10075;50.924;4.396;2023-02-26T14:58:42;6.20;95.00
19829;DHT22;10075;50.924;4.396;2023-02-26T15:01:23;6.20;95.10
19829;DHT22;10075;50.924;4.396;2023-02-26T15:07:07;6.30;95.30
19829;DHT22;10075;50.924;4.396;2023-02-26T15:09:47;6.40;95.30
19829;DHT22;10075;50.924;4.396;2023-02-26T15:12:29;6.60;95.20
19829;DHT22;10075;50.924;4.396;2023-02-26T15:15:15;6.60;95.50
19829;DHT22;10075;50.924;4.396;2023-02-26T15:18:02;6.70;95.60
19829;DHT22;10075;50.924;4.396;2023-02-26T15:20:44;7.30;94.80
19829;DHT22;10075;50.924;4.396;2023-02-26T15:23:32;8.30;93.40
19829;DHT22;10075;50.924;4.396;2023-02-26T15:26:03;9.10;92.40
19829;DHT22;10075;50.924;4.396;2023-02-26T15:28:32;9.80;91.00
19829;DHT22;10075;50.924;4.396;2023-02-26T15:31:04;10.10;90.60
19829;DHT22;10075;50.924;4.396;2023-02-26T15:33:32;10.60;90.20
19829;DHT22;10075;50.924;4.396;2023-02-26T15:36:03;10.80;88.50
19829;DHT22;10075;50.924;4.396;2023-02-26T15:38:39;10.10;90.00
19829;DHT22;10075;50.924;4.396;2023-02-26T15:41:07;9.80;90.20
19829;DHT22;10075;50.924;4.396;2023-02-26T15:43:35;9.80;90.30
19829;DHT22;10075;50.924;4.396;2023-02-26T15:46:04;9.90;90.20
19829;DHT22;10075;50.924;4.396;2023-02-26T15:48:34;10.00;90.20
19829;DHT22;10075;50.924;4.396;2023-02-26T15:51:04;10.00;89.20
19829;DHT22;10075;50.924;4.396;2023-02-26T15:53:34;9.80;89.60
19829;DHT22;10075;50.924;4.396;2023-02-26T15:56:04;9.60;90.50
19829;DHT22;10075;50.924;4.396;2023-02-26T15:58:36;9.50;90.40
19829;DHT22;10075;50.924;4.396;2023-02-26T16:01:05;9.60;90.30
19829;DHT22;10075;50.924;4.396;2023-02-26T16:03:35;9.90;90.40
19829;DHT22;10075;50.924;4.396;2023-02-26T16:06:02;10.20;90.00
19829;DHT22;10075;50.924;4.396;2023-02-26T16:08:35;10.70;89.40
19829;DHT22;10075;50.924;4.396;2023-02-26T16:11:03;10.90;87.90
19829;DHT22;10075;50.924;4.396;2023-02-26T16:13:34;10.50;89.50
19829;DHT22;10075;50.924;4.396;2023-02-26T16:16:07;10.80;88.90
19829;DHT22;10075;50.924;4.396;2023-02-26T16:18:38;10.80;88.80
19829;DHT22;10075;50.924;4.396;2023-02-26T16:21:08;11.10;88.90
19829;DHT22;10075;50.924;4.396;2023-02-26T16:23:43;11.20;88.60
19829;DHT22;10075;50.924;4.396;2023-02-26T16:26:15;11.80;88.00
19829;DHT22;10075;50.924;4.396;2023-02-26T16:28:45;12.20;85.90
19829;DHT22;10075;50.924;4.396;2023-02-26T16:31:21;11.30;86.20
19829;DHT22;10075;50.924;4.396;2023-02-26T16:33:53;10.60;88.00